Time,TemperatureF,DewpointF,PressureIn,WindDirection,WindDirectionDegrees,WindSpeedMPH,WindSpeedGustMPH,Humidity,HourlyPrecipIn,Conditions,Clouds,dailyrainin,SoftwareType,DateUTC
2013-07-26 00:00:00,65.0,62.0,29.97,NNE,30,29.0,31.0,89,-99.99,,,-99.99,,2013-07-26 04:00:00,
2013-07-26 00:32:00,65.0,62.0,29.97,NNE,30,29.0,31.0,89,-99.99,,,-99.99,,2013-07-26 04:32:00,
2013-07-26 00:42:00,65.0,62.0,29.97,NNE,30,29.0,31.0,89,-99.99,,,-99.99,,2013-07-26 04:42:00,
2013-07-26 00:53:00,65.0,62.0,29.97,NNE,30,29.0,31.0,89,-99.99,,,-99.99,,2013-07-26 04:53:00,
2013-07-26 01:00:00,64.0,63.0,29.96,NNE,30,30.0,32.0,98,-99.99,,,-99.99,,2013-07-26 05:00:00,
2013-07-26 01:32:00,64.0,63.0,29.96,NNE,30,30.0,32.0,98,-99.99,,,-99.99,,2013-07-26 05:32:00,
2013-07-26 01:43:00,64.0,63.0,29.96,NNE,30,30.0,32.0,98,-99.99,,,-99.99,,2013-07-26 05:43:00,
2013-07-26 01:52:00,64.0,63.0,29.96,NNE,30,30.0,32.0,98,-99.99,,,-99.99,,2013-07-26 05:52:00,
2013-07-26 03:00:00,63.0,63.0,29.94,North,10,23.0,24.0,100,-99.99,,,-99.99,,2013-07-26 07:00:00,
2013-07-26 03:32:00,63.0,63.0,29.94,North,10,23.0,24.0,100,-99.99,,,-99.99,,2013-07-26 07:32:00,
2013-07-26 03:42:00,63.0,63.0,29.94,North,10,23.0,24.0,100,-99.99,,,-99.99,,2013-07-26 07:42:00,
2013-07-26 03:52:00,63.0,63.0,29.94,North,10,23.0,24.0,100,-99.99,,,-99.99,,2013-07-26 07:52:00,
2013-07-26 04:00:00,63.0,63.0,29.93,North,10,21.0,23.0,100,-99.99,,,-99.99,,2013-07-26 08:00:00,
2013-07-26 04:32:00,63.0,63.0,29.93,North,10,21.0,23.0,100,-99.99,,,-99.99,,2013-07-26 08:32:00,
2013-07-26 04:43:00,63.0,63.0,29.93,North,10,21.0,23.0,100,-99.99,,,-99.99,,2013-07-26 08:43:00,
2013-07-26 04:52:00,63.0,63.0,29.93,North,10,21.0,23.0,100,-99.99,,,-99.99,,2013-07-26 08:52:00,
2013-07-26 05:00:00,64.0,64.0,29.91,North,360,23.0,27.0,100,-99.99,,,-99.99,,2013-07-26 09:00:00,
2013-07-26 05:32:00,64.0,64.0,29.91,North,360,23.0,27.0,100,-99.99,,,-99.99,,2013-07-26 09:32:00,
2013-07-26 05:43:00,64.0,64.0,29.91,North,360,23.0,27.0,100,-99.99,,,-99.99,,2013-07-26 09:43:00,
2013-07-26 05:52:00,64.0,64.0,29.91,North,360,23.0,27.0,100,-99.99,,,-99.99,,2013-07-26 09:52:00,
2013-07-26 06:00:00,64.0,64.0,29.89,North,360,28.0,30.0,100,-99.99,,,-99.99,,2013-07-26 10:00:00,
2013-07-26 06:32:00,64.0,64.0,29.89,North,360,28.0,30.0,100,-99.99,,,-99.99,,2013-07-26 10:32:00,
2013-07-26 06:42:00,64.0,64.0,29.89,North,360,28.0,30.0,100,-99.99,,,-99.99,,2013-07-26 10:42:00,
2013-07-26 06:52:00,64.0,64.0,29.89,North,360,28.0,30.0,100,-99.99,,,-99.99,,2013-07-26 10:52:00,
2013-07-26 07:00:00,64.0,64.0,29.88,North,360,27.0,32.0,100,-99.99,,,-99.99,,2013-07-26 11:00:00,
2013-07-26 07:43:00,64.0,64.0,29.88,North,360,27.0,32.0,100,-99.99,,,-99.99,,2013-07-26 11:43:00,
2013-07-26 07:52:00,64.0,64.0,29.88,North,360,27.0,32.0,100,-99.99,,,-99.99,,2013-07-26 11:52:00,
2013-07-26 09:00:00,64.0,64.0,29.90,North,360,24.0,29.0,100,-99.99,,,-99.99,,2013-07-26 13:00:00,
2013-07-26 09:43:00,64.0,64.0,29.90,North,360,24.0,29.0,100,-99.99,,,-99.99,,2013-07-26 13:43:00,
2013-07-26 09:53:00,64.0,64.0,29.90,North,360,24.0,29.0,100,-99.99,,,-99.99,,2013-07-26 13:53:00,
2013-07-26 10:00:00,65.0,65.0,29.88,North,350,25.0,29.0,100,-99.99,,,-99.99,,2013-07-26 14:00:00,
2013-07-26 10:43:00,65.0,65.0,29.88,North,350,25.0,29.0,100,-99.99,,,-99.99,,2013-07-26 14:43:00,
2013-07-26 10:53:00,65.0,65.0,29.88,North,350,25.0,29.0,100,-99.99,,,-99.99,,2013-07-26 14:53:00,
2013-07-26 11:00:00,65.0,65.0,29.89,North,350,25.0,28.0,98,-99.99,,,-99.99,,2013-07-26 15:00:00,
2013-07-26 11:32:00,65.0,65.0,29.89,North,350,25.0,28.0,98,-99.99,,,-99.99,,2013-07-26 15:32:00,
2013-07-26 11:43:00,65.0,65.0,29.89,North,350,25.0,28.0,98,-99.99,,,-99.99,,2013-07-26 15:43:00,
2013-07-26 11:53:00,65.0,65.0,29.89,North,350,25.0,28.0,98,-99.99,,,-99.99,,2013-07-26 15:53:00,
2013-07-26 12:00:00,66.0,65.0,29.90,NNW,340,23.0,24.0,96,-99.99,,,-99.99,,2013-07-26 16:00:00,
2013-07-26 12:43:00,66.0,65.0,29.90,NNW,340,23.0,24.0,96,-99.99,,,-99.99,,2013-07-26 16:43:00,
2013-07-26 12:53:00,66.0,65.0,29.90,NNW,340,23.0,24.0,96,-99.99,,,-99.99,,2013-07-26 16:53:00,
2013-07-26 13:33:00,66.0,65.0,29.90,NNW,340,24.0,28.0,95,-99.99,,,-99.99,,2013-07-26 17:33:00,
2013-07-26 13:43:00,66.0,65.0,29.90,NNW,340,24.0,28.0,95,-99.99,,,-99.99,,2013-07-26 17:43:00,
2013-07-26 13:52:00,66.0,65.0,29.90,NNW,340,24.0,28.0,95,-99.99,,,-99.99,,2013-07-26 17:52:00,
2013-07-26 14:00:00,67.0,65.0,29.92,NW,310,21.0,23.0,95,-99.99,,,-99.99,,2013-07-26 18:00:00,
2013-07-26 14:32:00,67.0,65.0,29.92,NW,310,21.0,23.0,95,-99.99,,,-99.99,,2013-07-26 18:32:00,
2013-07-26 14:43:00,67.0,65.0,29.92,NW,310,21.0,23.0,95,-99.99,,,-99.99,,2013-07-26 18:43:00,
2013-07-26 14:52:00,67.0,65.0,29.92,NW,310,21.0,23.0,95,-99.99,,,-99.99,,2013-07-26 18:52:00,
2013-07-26 15:00:00,68.0,66.0,29.93,WNW,300,17.0,20.0,94,-99.99,,,-99.99,,2013-07-26 19:00:00,
2013-07-26 15:32:00,68.0,66.0,29.93,WNW,300,17.0,20.0,94,-99.99,,,-99.99,,2013-07-26 19:32:00,
2013-07-26 15:43:00,68.0,66.0,29.93,WNW,300,17.0,20.0,94,-99.99,,,-99.99,,2013-07-26 19:43:00,
2013-07-26 15:52:00,68.0,66.0,29.93,WNW,300,17.0,20.0,94,-99.99,,,-99.99,,2013-07-26 19:52:00,
2013-07-26 16:00:00,68.0,68.0,29.94,WNW,290,17.0,18.0,98,-99.99,,,-99.99,,2013-07-26 20:00:00,
2013-07-26 16:43:00,68.0,68.0,29.94,WNW,290,17.0,18.0,98,-99.99,,,-99.99,,2013-07-26 20:43:00,
2013-07-26 16:52:00,68.0,68.0,29.94,WNW,290,17.0,18.0,98,-99.99,,,-99.99,,2013-07-26 20:52:00,
2013-07-26 17:00:00,69.0,67.0,29.95,West,280,20.0,22.0,95,-99.99,,,-99.99,,2013-07-26 21:00:00,
2013-07-26 17:32:00,69.0,67.0,29.95,West,280,20.0,22.0,95,-99.99,,,-99.99,,2013-07-26 21:32:00,
2013-07-26 17:43:00,69.0,67.0,29.95,West,280,20.0,22.0,95,-99.99,,,-99.99,,2013-07-26 21:43:00,
2013-07-26 17:53:00,69.0,67.0,29.95,West,280,20.0,22.0,95,-99.99,,,-99.99,,2013-07-26 21:53:00,
2013-07-26 20:00:00,68.0,68.0,29.99,WNW,290,10.0,10.0,98,-99.99,,,-99.99,,2013-07-27 00:00:00,
2013-07-26 20:32:00,68.0,68.0,29.99,WNW,290,10.0,10.0,98,-99.99,,,-99.99,,2013-07-27 00:32:00,
2013-07-26 20:42:00,68.0,68.0,29.99,WNW,290,10.0,10.0,98,-99.99,,,-99.99,,2013-07-27 00:42:00,
2013-07-26 20:53:00,68.0,68.0,29.99,WNW,290,10.0,10.0,98,-99.99,,,-99.99,,2013-07-27 00:53:00,
2013-07-26 21:00:00,68.0,67.0,30.01,WSW,240,10.0,12.0,97,-99.99,,,-99.99,,2013-07-27 01:00:00,
2013-07-26 21:32:00,68.0,67.0,30.01,WSW,240,10.0,12.0,97,-99.99,,,-99.99,,2013-07-27 01:32:00,
2013-07-26 21:43:00,68.0,67.0,30.01,WSW,240,10.0,12.0,97,-99.99,,,-99.99,,2013-07-27 01:43:00,
2013-07-26 21:53:00,68.0,67.0,30.01,WSW,240,10.0,12.0,97,-99.99,,,-99.99,,2013-07-27 01:53:00,
2013-07-26 22:00:00,68.0,67.0,30.02,WSW,250,16.0,17.0,96,-99.99,,,-99.99,,2013-07-27 02:00:00,
2013-07-26 22:32:00,68.0,67.0,30.02,WSW,250,16.0,17.0,96,-99.99,,,-99.99,,2013-07-27 02:32:00,
2013-07-26 22:43:00,68.0,67.0,30.02,WSW,250,16.0,17.0,96,-99.99,,,-99.99,,2013-07-27 02:43:00,
2013-07-26 22:52:00,68.0,67.0,30.02,WSW,250,16.0,17.0,96,-99.99,,,-99.99,,2013-07-27 02:52:00,
2013-07-26 23:00:00,68.0,67.0,30.03,WSW,240,14.0,14.0,96,-99.99,,,-99.99,,2013-07-27 03:00:00,
2013-07-26 23:43:00,68.0,67.0,30.03,WSW,240,14.0,14.0,96,-99.99,,,-99.99,,2013-07-27 03:43:00,
2013-07-26 23:52:00,68.0,67.0,30.03,WSW,240,14.0,14.0,96,-99.99,,,-99.99,,2013-07-27 03:52:00,